Time;durP1;ratioP1;P1;durP2;ratioP2;P2;SDS_P1;SDS_P2;PMS_P1;PMS_P2;Temp;Humidity;BMP_temperature;BMP_pressure;BME280_temperature;BME280_humidity;BME280_pressure;Samples;Min_cycle;Max_cycle;Signal;HPM_P1;HPM_P2
2022/01/07 00:01:32;;;;;;;13.00;4.90;;;4.20;99.90;;;;;;5002608;28;20042;-62
2022/01/07 00:03:58;;;;;;;16.83;5.47;;;4.10;99.90;;;;;;4992521;28;20053;-61
2022/01/07 00:06:23;;;;;;;9.73;5.22;;;4.20;99.90;;;;;;5005997;28;20381;-61
2022/01/07 00:08:49;;;;;;;16.38;6.13;;;4.20;99.90;;;;;;4988839;28;20034;-61
2022/01/07 00:11:15;;;;;;;13.18;5.43;;;4.10;99.90;;;;;;5013566;28;20038;-61
2022/01/07 00:13:41;;;;;;;21.27;6.20;;;4.10;99.90;;;;;;5009183;28;20034;-61
2022/01/07 00:16:08;;;;;;;15.95;5.93;;;4.10;99.90;;;;;;4994769;28;20034;-60
2022/01/07 00:18:34;;;;;;;14.88;5.35;;;4.10;99.90;;;;;;5003358;28;20092;-61
2022/01/07 00:21:01;;;;;;;10.88;5.35;;;4.10;99.90;;;;;;4992437;28;20508;-61
2022/01/07 00:23:27;;;;;;;11.73;5.43;;;4.00;99.90;;;;;;4986466;28;20133;-61
2022/01/07 00:25:53;;;;;;;13.52;5.05;;;4.00;99.90;;;;;;5002705;28;20122;-60
2022/01/07 00:28:19;;;;;;;11.65;5.18;;;4.00;99.90;;;;;;4995505;28;20125;-61
2022/01/07 00:30:45;;;;;;;12.90;5.15;;;4.00;99.90;;;;;;4998040;28;20034;-61
2022/01/07 00:33:11;;;;;;;13.00;5.22;;;3.90;99.90;;;;;;4989571;28;20047;-61
2022/01/07 00:35:37;;;;;;;13.38;5.70;;;3.90;99.90;;;;;;5002721;28;20046;-61
2022/01/07 00:38:04;;;;;;;14.00;5.30;;;3.90;99.90;;;;;;5013394;28;20153;-60
2022/01/07 00:40:30;;;;;;;17.00;5.97;;;3.90;99.90;;;;;;5020406;28;20054;-61
2022/01/07 00:42:56;;;;;;;16.60;5.95;;;3.90;99.90;;;;;;4989584;28;20042;-61
2022/01/07 00:45:23;;;;;;;16.02;6.88;;;3.90;99.90;;;;;;4994165;28;20046;-61
2022/01/07 00:47:50;;;;;;;15.38;5.93;;;3.80;99.90;;;;;;5015338;28;20049;-59
2022/01/07 00:50:18;;;;;;;19.58;5.95;;;3.80;99.90;;;;;;4995696;28;20046;-60
2022/01/07 00:52:44;;;;;;;16.15;6.43;;;3.80;99.90;;;;;;4986576;28;20026;-61
2022/01/07 00:55:11;;;;;;;15.57;6.20;;;3.80;99.90;;;;;;4989649;28;20034;-61
2022/01/07 00:57:37;;;;;;;15.20;6.22;;;3.80;99.90;;;;;;4989152;28;20121;-62
2022/01/07 01:00:10;;;;;;;14.63;6.05;;;3.80;99.90;;;;;;4993988;28;20082;-60
2022/01/07 01:02:36;;;;;;;14.07;5.93;;;3.90;99.90;;;;;;4983797;28;20536;-61
2022/01/07 01:05:03;;;;;;;17.55;5.95;;;3.80;99.90;;;;;;4994308;28;20051;-61
2022/01/07 01:07:29;;;;;;;13.95;6.43;;;3.80;99.90;;;;;;4982120;28;20077;-60
2022/01/07 01:09:55;;;;;;;16.52;6.63;;;3.80;99.90;;;;;;4986565;28;20069;-61
2022/01/07 01:12:21;;;;;;;15.05;6.53;;;3.80;99.90;;;;;;4989323;28;20042;-60
2022/01/07 01:14:46;;;;;;;16.33;7.25;;;3.80;99.90;;;;;;5016133;28;20049;-60
2022/01/07 01:17:12;;;;;;;16.45;7.15;;;3.80;99.90;;;;;;5009425;28;20567;-60
2022/01/07 01:19:38;;;;;;;15.57;6.53;;;3.80;99.90;;;;;;5003694;28;20057;-61
2022/01/07 01:22:04;;;;;;;16.10;7.30;;;3.80;99.90;;;;;;4982751;28;20042;-61
2022/01/07 01:24:30;;;;;;;15.02;7.32;;;3.90;99.90;;;;;;5000499;28;20508;-61
2022/01/07 01:26:56;;;;;;;16.08;7.53;;;3.90;99.90;;;;;;4997029;28;20049;-61
2022/01/07 01:29:22;;;;;;;13.98;7.70;;;3.80;99.90;;;;;;4999011;28;20046;-60
2022/01/07 01:31:49;;;;;;;15.48;7.43;;;3.80;99.90;;;;;;5003761;28;20463;-60
2022/01/07 01:34:15;;;;;;;17.48;8.27;;;3.80;99.90;;;;;;5003129;28;20046;-61
2022/01/07 01:36:41;;;;;;;16.35;8.02;;;3.90;99.90;;;;;;5000200;28;20101;-61
2022/01/07 01:39:08;;;;;;;17.42;7.63;;;3.80;99.90;;;;;;4986212;28;20154;-61
2022/01/07 01:41:33;;;;;;;16.48;8.23;;;3.80;99.90;;;;;;4992290;28;20129;-61
2022/01/07 01:43:59;;;;;;;12.75;7.68;;;3.80;99.90;;;;;;4996892;28;20122;-62
2022/01/07 01:46:25;;;;;;;17.00;7.57;;;3.80;99.90;;;;;;4986254;28;20478;-59
2022/01/07 01:48:51;;;;;;;18.15;7.65;;;3.80;99.90;;;;;;5002956;28;20042;-61
2022/01/07 01:51:17;;;;;;;16.98;8.00;;;3.70;99.90;;;;;;5015626;28;20072;-61
2022/01/07 01:53:43;;;;;;;20.67;8.85;;;3.70;99.90;;;;;;5002907;28;20048;-60
2022/01/07 01:56:09;;;;;;;17.80;9.07;;;3.70;99.90;;;;;;4993235;28;20042;-60
2022/01/07 01:58:35;;;;;;;18.25;8.38;;;3.70;99.90;;;;;;5000562;28;20057;-61
2022/01/07 02:01:01;;;;;;;19.52;8.65;;;3.70;99.90;;;;;;5001462;28;20065;-61
2022/01/07 02:03:27;;;;;;;19.65;9.93;;;3.70;99.90;;;;;;4998364;28;20042;-61
2022/01/07 02:05:54;;;;;;;21.77;8.70;;;3.80;99.90;;;;;;5002990;28;20041;-62
2022/01/07 02:08:20;;;;;;;16.38;8.85;;;3.70;99.90;;;;;;4964402;28;20297;-62
2022/01/07 02:10:46;;;;;;;15.25;9.82;;;3.80;99.90;;;;;;4975544;28;20042;-61
2022/01/07 02:13:12;;;;;;;19.02;9.75;;;3.70;99.90;;;;;;4995528;28;20426;-61
2022/01/07 02:15:38;;;;;;;16.92;9.60;;;3.70;99.90;;;;;;5018284;28;20120;-62
2022/01/07 02:18:04;;;;;;;21.13;9.68;;;3.70;99.90;;;;;;5027785;28;20125;-62
2022/01/07 02:20:30;;;;;;;18.25;9.68;;;3.80;99.90;;;;;;4991025;28;20526;-62
2022/01/07 02:22:57;;;;;;;21.83;10.00;;;3.70;99.90;;;;;;5001544;28;20104;-62
2022/01/07 02:25:23;;;;;;;14.55;10.00;;;3.70;99.90;;;;;;5000679;28;20459;-61
2022/01/07 02:27:49;;;;;;;14.57;9.90;;;3.70;99.90;;;;;;5022030;28;20077;-60
2022/01/07 02:30:19;;;;;;;20.40;10.95;;;3.60;99.90;;;;;;4970168;28;20086;-62
2022/01/07 02:32:45;;;;;;;15.77;9.93;;;3.70;99.90;;;;;;5001340;28;20087;-62
2022/01/07 02:35:14;;;;;;;16.70;9.52;;;3.60;99.90;;;;;;4991471;28;20735;-61
2022/01/07 02:37:40;;;;;;;13.77;9.70;;;3.60;99.90;;;;;;4992419;28;20042;-62
2022/01/07 02:40:09;;;;;;;15.93;9.48;;;3.40;99.90;;;;;;5010877;28;20128;-63
2022/01/07 02:42:35;;;;;;;14.75;10.27;;;3.50;99.90;;;;;;4994969;28;20046;-61
2022/01/07 02:45:02;;;;;;;17.58;9.77;;;3.40;99.90;;;;;;4998689;28;20108;-61
2022/01/07 02:47:34;;;;;;;15.05;10.27;;;3.40;99.90;;;;;;4985383;28;20428;-60
2022/01/07 02:50:05;;;;;;;18.05;10.90;;;3.40;99.90;;;;;;5015318;28;20034;-60
2022/01/07 02:52:31;;;;;;;14.45;11.30;;;3.40;99.90;;;;;;4998039;28;20038;-60
2022/01/07 02:54:57;;;;;;;16.92;11.02;;;3.40;99.90;;;;;;4996775;28;20026;-61
2022/01/07 02:57:23;;;;;;;16.58;10.60;;;3.50;99.90;;;;;;4999949;28;20132;-60
2022/01/07 02:59:49;;;;;;;17.60;10.80;;;3.40;99.90;;;;;;4993071;28;20117;-60
2022/01/07 03:02:15;;;;;;;16.70;11.10;;;3.50;99.90;;;;;;4987195;28;20043;-61
2022/01/07 03:04:40;;;;;;;16.33;9.90;;;3.40;99.90;;;;;;4989987;28;20597;-61
2022/01/07 03:07:06;;;;;;;18.85;11.98;;;3.40;99.90;;;;;;4993958;28;20077;-60
2022/01/07 03:09:32;;;;;;;18.15;10.68;;;3.50;99.90;;;;;;4974505;28;20046;-60
2022/01/07 03:11:58;;;;;;;20.83;11.52;;;3.50;99.90;;;;;;5000392;28;20046;-59
2022/01/07 03:14:25;;;;;;;18.60;11.65;;;3.40;99.90;;;;;;4999834;28;20042;-60
2022/01/07 03:16:51;;;;;;;17.60;11.18;;;3.50;99.90;;;;;;4995423;28;20050;-60
2022/01/07 03:19:17;;;;;;;20.65;12.23;;;3.40;99.90;;;;;;4995398;28;20475;-60
2022/01/07 03:21:42;;;;;;;17.23;11.52;;;3.50;99.90;;;;;;4977619;28;20125;-60
2022/01/07 03:24:08;;;;;;;20.65;11.88;;;3.50;99.90;;;;;;4993503;28;20125;-61
2022/01/07 03:26:34;;;;;;;19.23;11.50;;;3.50;99.90;;;;;;4982553;28;20081;-61
2022/01/07 03:29:00;;;;;;;17.02;11.60;;;3.50;99.90;;;;;;4974035;28;20452;-61
2022/01/07 03:31:25;;;;;;;16.38;12.20;;;3.50;99.90;;;;;;4997766;28;20041;-61
2022/01/07 03:33:51;;;;;;;22.73;11.98;;;3.50;99.90;;;;;;5003178;28;20035;-61
2022/01/07 03:36:17;;;;;;;18.10;11.93;;;3.50;99.90;;;;;;5006349;28;20053;-62
2022/01/07 03:38:43;;;;;;;23.80;13.75;;;3.60;99.90;;;;;;5008021;28;20048;-62
2022/01/07 03:41:08;;;;;;;17.02;11.80;;;3.60;99.90;;;;;;5000399;23;20373;-59
2022/01/07 03:43:34;;;;;;;15.90;10.60;;;3.60;99.90;;;;;;4971103;28;20173;-58
2022/01/07 03:46:00;;;;;;;19.58;11.68;;;3.70;99.90;;;;;;4969903;28;20046;-60
2022/01/07 03:48:26;;;;;;;21.25;12.38;;;3.60;99.90;;;;;;4974421;28;20085;-59
2022/01/07 03:50:52;;;;;;;19.80;12.65;;;3.60;99.90;;;;;;4963837;28;20038;-59
2022/01/07 03:53:17;;;;;;;18.52;12.85;;;3.70;99.90;;;;;;4971698;28;20503;-60
2022/01/07 03:55:43;;;;;;;16.75;12.27;;;3.70;99.90;;;;;;4968760;28;20072;-58
2022/01/07 03:58:09;;;;;;;21.77;12.48;;;3.70;99.90;;;;;;4970184;28;20074;-60
2022/01/07 04:00:39;;;;;;;16.48;11.95;;;3.70;99.90;;;;;;4949152;28;20546;-59
2022/01/07 04:03:08;;;;;;;17.17;11.55;;;3.70;99.90;;;;;;4985296;28;20619;-57
2022/01/07 04:05:34;;;;;;;16.08;11.88;;;3.70;99.90;;;;;;4971040;28;20155;-59
2022/01/07 04:08:04;;;;;;;15.55;11.43;;;3.70;99.90;;;;;;4960684;28;20050;-59
2022/01/07 04:10:30;;;;;;;16.95;11.85;;;3.70;99.90;;;;;;4975784;28;20050;-59
2022/01/07 04:12:56;;;;;;;17.40;11.40;;;3.70;99.90;;;;;;4967087;28;20562;-59
2022/01/07 04:15:23;;;;;;;18.13;11.90;;;3.70;99.90;;;;;;4969166;28;21469;-60
2022/01/07 04:17:51;;;;;;;16.33;11.55;;;3.70;99.90;;;;;;4966909;28;20057;-60
2022/01/07 04:20:20;;;;;;;17.02;11.90;;;3.70;99.90;;;;;;4964569;28;20497;-58
2022/01/07 04:22:46;;;;;;;17.30;11.27;;;3.70;99.90;;;;;;4988483;28;20054;-59
2022/01/07 04:25:17;;;;;;;16.13;12.20;;;3.70;99.90;;;;;;4971521;28;20054;-58
2022/01/07 04:27:46;;;;;;;15.43;11.25;;;3.70;99.90;;;;;;4968675;28;20233;-57
2022/01/07 04:30:13;;;;;;;17.95;13.23;;;3.70;99.90;;;;;;4966916;28;20045;-57
2022/01/07 04:32:39;;;;;;;18.52;13.10;;;3.70;99.90;;;;;;4970104;28;20042;-59
2022/01/07 04:35:06;;;;;;;17.30;12.02;;;3.70;99.90;;;;;;4955451;28;20053;-59
2022/01/07 04:37:32;;;;;;;19.40;12.98;;;3.70;99.90;;;;;;4966107;28;20038;-58
2022/01/07 04:39:58;;;;;;;14.98;12.40;;;3.80;99.90;;;;;;4972325;28;20452;-59
2022/01/07 04:42:24;;;;;;;20.40;13.30;;;3.80;99.90;;;;;;4965980;28;20133;-59
2022/01/07 04:44:50;;;;;;;17.02;12.93;;;3.80;99.90;;;;;;4964769;28;20405;-58
2022/01/07 04:47:15;;;;;;;17.25;13.40;;;3.80;99.90;;;;;;4967124;28;20084;-57
2022/01/07 04:49:41;;;;;;;22.00;13.48;;;3.80;99.90;;;;;;4974110;28;20043;-59
2022/01/07 04:52:07;;;;;;;26.63;14.68;;;3.80;99.90;;;;;;4972995;28;20074;-59
2022/01/07 04:54:33;;;;;;;16.83;13.60;;;3.80;99.90;;;;;;4970762;28;20664;-58
2022/01/07 04:56:59;;;;;;;20.08;13.20;;;3.80;99.90;;;;;;4975311;28;20058;-58
2022/01/07 04:59:25;;;;;;;15.68;12.77;;;3.80;99.90;;;;;;4971782;28;20038;-60
2022/01/07 05:01:51;;;;;;;21.75;13.18;;;3.80;99.90;;;;;;4977939;28;20523;-58
2022/01/07 05:04:17;;;;;;;18.70;12.85;;;3.80;99.90;;;;;;4969116;28;20565;-58
2022/01/07 05:06:47;;;;;;;18.58;14.25;;;3.80;99.90;;;;;;4974628;28;20050;-58
2022/01/07 05:09:17;;;;;;;17.20;12.80;;;3.80;99.90;;;;;;4973148;28;20054;-59
2022/01/07 05:11:44;;;;;;;18.38;13.45;;;3.80;99.90;;;;;;4971090;28;20076;-58
2022/01/07 05:14:10;;;;;;;19.95;13.15;;;3.90;99.90;;;;;;4973024;28;20035;-59
2022/01/07 05:16:35;;;;;;;18.45;13.35;;;3.90;99.90;;;;;;4967923;28;20397;-58
2022/01/07 05:19:02;;;;;;;19.80;14.80;;;3.90;99.90;;;;;;4971004;28;20039;-59
2022/01/07 05:21:28;;;;;;;23.83;14.20;;;3.90;99.90;;;;;;4972669;28;20055;-60
2022/01/07 05:23:53;;;;;;;17.90;13.27;;;3.90;99.90;;;;;;4964058;28;20038;-59
2022/01/07 05:26:19;;;;;;;21.92;13.50;;;3.80;99.90;;;;;;4971464;28;20053;-57
2022/01/07 05:28:45;;;;;;;20.38;13.35;;;3.90;99.90;;;;;;4972961;28;20035;-58
2022/01/07 05:31:11;;;;;;;23.52;14.70;;;3.90;99.90;;;;;;4975503;28;20046;-58
2022/01/07 05:33:36;;;;;;;23.00;15.00;;;3.90;99.90;;;;;;4967253;28;20038;-58
2022/01/07 05:36:02;;;;;;;18.70;14.13;;;3.90;99.90;;;;;;4972079;28;20039;-58
2022/01/07 05:38:28;;;;;;;20.13;14.18;;;3.90;99.90;;;;;;4969514;28;20042;-58
2022/01/07 05:40:54;;;;;;;21.15;14.88;;;3.90;99.90;;;;;;4972232;28;20099;-55
2022/01/07 05:43:20;;;;;;;24.40;14.90;;;4.00;99.90;;;;;;4969034;28;20908;-56
2022/01/07 05:45:46;;;;;;;20.58;15.48;;;4.00;99.90;;;;;;4966244;28;20518;-56
2022/01/07 05:48:14;;;;;;;24.08;14.68;;;4.00;99.90;;;;;;4978020;28;20069;-59
2022/01/07 05:50:40;;;;;;;25.30;15.57;;;4.00;99.90;;;;;;4975287;28;20144;-58
2022/01/07 05:53:06;;;;;;;24.77;14.60;;;4.00;99.90;;;;;;4972351;28;20049;-57
2022/01/07 05:55:32;;;;;;;21.70;14.02;;;4.00;99.90;;;;;;4975469;28;20413;-56
2022/01/07 05:57:58;;;;;;;19.65;13.65;;;4.00;99.90;;;;;;4973879;28;20034;-59
2022/01/07 06:00:24;;;;;;;28.85;16.05;;;4.00;99.90;;;;;;4975268;28;20158;-58
2022/01/07 06:02:49;;;;;;;25.17;16.60;;;4.00;99.90;;;;;;4963033;28;20086;-58
2022/01/07 06:05:15;;;;;;;19.70;14.80;;;4.00;99.90;;;;;;4963912;28;20046;-57
2022/01/07 06:07:41;;;;;;;24.55;16.55;;;4.10;99.90;;;;;;4955579;28;20041;-58
2022/01/07 06:10:07;;;;;;;23.70;15.48;;;4.00;99.90;;;;;;4974613;28;20034;-59
2022/01/07 06:12:33;;;;;;;23.08;16.02;;;4.00;99.90;;;;;;4970475;28;20035;-58
2022/01/07 06:14:59;;;;;;;21.83;15.05;;;4.10;99.90;;;;;;4967773;28;20038;-57
2022/01/07 06:17:25;;;;;;;18.73;15.10;;;4.10;99.90;;;;;;4964458;28;20104;-58
2022/01/07 06:19:51;;;;;;;21.98;16.13;;;4.10;99.90;;;;;;4972853;28;20578;-58
2022/01/07 06:22:17;;;;;;;23.85;15.75;;;4.10;99.90;;;;;;4953538;28;20050;-57
2022/01/07 06:24:43;;;;;;;22.70;16.95;;;4.10;99.90;;;;;;4965892;28;20408;-57
2022/01/07 06:27:09;;;;;;;19.45;15.00;;;4.10;99.90;;;;;;4973891;28;20039;-58
2022/01/07 06:29:37;;;;;;;22.50;15.98;;;4.10;99.90;;;;;;4974328;28;20054;-56
2022/01/07 06:32:04;;;;;;;22.20;15.82;;;4.10;99.90;;;;;;4956507;28;20043;-55
2022/01/07 06:34:30;;;;;;;18.85;15.50;;;4.10;99.90;;;;;;4967346;28;20168;-55
2022/01/07 06:36:58;;;;;;;20.38;15.40;;;4.10;99.90;;;;;;4983314;28;20619;-60
2022/01/07 06:39:24;;;;;;;20.50;15.23;;;4.10;99.90;;;;;;4957016;28;20046;-56
2022/01/07 06:41:51;;;;;;;22.38;15.80;;;4.20;99.90;;;;;;4960375;28;20042;-55
2022/01/07 06:44:17;;;;;;;21.88;15.57;;;4.20;99.90;;;;;;4964259;28;20031;-57
2022/01/07 06:46:43;;;;;;;19.60;15.32;;;4.20;99.90;;;;;;4967669;28;21229;-58
2022/01/07 06:49:09;;;;;;;23.70;17.23;;;4.20;99.90;;;;;;4966094;28;20301;-56
2022/01/07 06:51:35;;;;;;;24.65;17.02;;;4.20;99.90;;;;;;4971474;28;20035;-59
2022/01/07 06:54:01;;;;;;;24.58;16.73;;;4.30;99.90;;;;;;4972929;28;20046;-58
2022/01/07 06:56:28;;;;;;;24.80;17.45;;;4.30;99.90;;;;;;4967782;28;20039;-56
2022/01/07 06:58:54;;;;;;;29.75;18.48;;;4.30;99.90;;;;;;4966491;28;20121;-59
2022/01/07 07:01:20;;;;;;;24.38;18.00;;;4.30;99.90;;;;;;4964699;28;20041;-58
2022/01/07 07:03:46;;;;;;;25.08;17.83;;;4.40;99.90;;;;;;4966580;28;20563;-56
2022/01/07 07:06:12;;;;;;;26.80;17.45;;;4.30;99.90;;;;;;4966960;28;20043;-57
2022/01/07 07:08:38;;;;;;;28.02;18.33;;;4.40;99.90;;;;;;4971189;28;20079;-58
2022/01/07 07:11:04;;;;;;;23.75;18.63;;;4.30;99.90;;;;;;4971681;28;20448;-57
2022/01/07 07:13:30;;;;;;;25.15;17.83;;;4.30;99.90;;;;;;4961639;28;20065;-58
2022/01/07 07:15:56;;;;;;;23.95;16.98;;;4.30;99.90;;;;;;4944856;28;20046;-57
2022/01/07 07:18:21;;;;;;;25.65;18.38;;;4.30;99.90;;;;;;4944202;28;20043;-56
2022/01/07 07:20:47;;;;;;;26.70;17.92;;;4.30;99.90;;;;;;4945057;28;20042;-59
2022/01/07 07:23:13;;;;;;;26.52;16.92;;;4.30;99.90;;;;;;4941439;28;20042;-59
2022/01/07 07:25:39;;;;;;;31.05;19.35;;;4.30;99.90;;;;;;4938433;28;20050;-59
2022/01/07 07:28:05;;;;;;;28.17;18.80;;;4.20;99.90;;;;;;4942506;28;20129;-57
2022/01/07 07:30:37;;;;;;;25.10;18.58;;;4.30;99.90;;;;;;4941853;28;20034;-58
2022/01/07 07:33:29;;;;;;;24.75;18.40;;;4.20;99.90;;;;;;4946747;28;20080;-59
2022/01/07 07:38:34;;;;;;;27.75;18.70;;;4.30;99.90;;;;;;4972103;28;20075;-58
2022/01/07 07:41:00;;;;;;;30.85;19.48;;;4.20;99.90;;;;;;4970437;28;20190;-56
2022/01/07 07:43:26;;;;;;;29.33;20.48;;;4.30;99.90;;;;;;4965696;28;20043;-55
2022/01/07 07:45:51;;;;;;;31.40;18.95;;;4.30;99.90;;;;;;4980849;28;20050;-59
2022/01/07 07:48:17;;;;;;;28.20;19.17;;;4.30;99.90;;;;;;4962032;28;20047;-58
2022/01/07 07:50:43;;;;;;;28.75;20.65;;;4.30;99.90;;;;;;4964752;28;20039;-59
2022/01/07 07:53:08;;;;;;;28.50;19.52;;;4.30;99.90;;;;;;4965323;28;20042;-56
2022/01/07 07:55:34;;;;;;;33.22;20.08;;;4.50;99.90;;;;;;4968968;28;20390;-56
2022/01/07 07:58:00;;;;;;;33.40;20.75;;;4.30;99.90;;;;;;4970030;28;20046;-59
2022/01/07 08:00:26;;;;;;;29.70;20.23;;;4.30;99.90;;;;;;4966389;28;20045;-58
2022/01/07 08:02:51;;;;;;;30.88;20.88;;;4.30;99.90;;;;;;4971294;28;20408;-57
2022/01/07 08:05:17;;;;;;;35.83;21.25;;;4.30;99.90;;;;;;4964648;28;20519;-59
2022/01/07 08:07:43;;;;;;;31.77;19.98;;;4.40;99.90;;;;;;4969667;28;20513;-57
2022/01/07 08:10:09;;;;;;;29.55;20.98;;;4.40;99.90;;;;;;4962485;28;20082;-58
2022/01/07 08:18:04;;;;;;;28.92;19.90;;;4.40;99.90;;;;;;4967532;28;20057;-59
2022/01/07 08:20:30;;;;;;;30.67;20.02;;;4.40;99.90;;;;;;4968424;28;20054;-58
2022/01/07 08:22:56;;;;;;;31.45;19.77;;;4.40;99.90;;;;;;4973728;28;20061;-58
2022/01/07 08:25:23;;;;;;;33.53;19.35;;;4.40;99.90;;;;;;4966861;28;22203;-59
2022/01/07 08:27:50;;;;;;;32.22;19.85;;;4.40;99.90;;;;;;4968168;28;20050;-59
2022/01/07 08:30:23;;;;;;;31.23;19.45;;;4.50;99.90;;;;;;4971877;28;20670;-59
2022/01/07 08:35:38;;;;;;;35.10;19.88;;;4.50;99.90;;;;;;4959742;28;20054;-59
2022/01/07 08:38:04;;;;;;;28.00;18.48;;;4.50;99.90;;;;;;4977984;28;20037;-57
2022/01/07 08:40:29;;;;;;;34.53;19.55;;;4.50;99.90;;;;;;4969419;28;20047;-59
2022/01/07 08:42:56;;;;;;;34.78;20.40;;;4.60;99.90;;;;;;4972115;28;20489;-58
2022/01/07 08:45:23;;;;;;;34.92;20.20;;;4.60;99.90;;;;;;4967456;28;20034;-63
2022/01/07 08:47:49;;;;;;;29.95;20.48;;;4.60;99.90;;;;;;4984969;28;20693;-59
2022/01/07 08:50:15;;;;;;;35.85;20.10;;;4.70;99.90;;;;;;4975864;28;20521;-58
2022/01/07 08:52:41;;;;;;;277.90;40.20;;;4.70;99.90;;;;;;4969811;28;20662;-62
2022/01/07 08:55:07;;;;;;;47.05;22.20;;;4.70;99.90;;;;;;4971202;28;20318;-57
2022/01/07 08:57:32;;;;;;;28.60;18.73;;;4.70;99.90;;;;;;4978643;28;20038;-58
2022/01/07 08:59:58;;;;;;;32.95;18.55;;;4.80;99.90;;;;;;4973306;28;20493;-58
2022/01/07 09:02:24;;;;;;;32.10;19.80;;;4.80;99.90;;;;;;4969978;28;20128;-55
2022/01/07 09:04:50;;;;;;;32.88;19.83;;;4.80;99.90;;;;;;4950800;28;20058;-59
2022/01/07 09:07:15;;;;;;;34.70;20.85;;;4.90;99.90;;;;;;4978738;28;20540;-57
2022/01/07 09:09:41;;;;;;;39.35;20.17;;;4.80;99.90;;;;;;4967458;28;20744;-57
2022/01/07 09:12:08;;;;;;;29.13;18.98;;;4.80;99.90;;;;;;4968944;28;20034;-57
2022/01/07 09:14:33;;;;;;;31.00;18.58;;;4.90;99.90;;;;;;4973138;28;20048;-59
2022/01/07 09:16:59;;;;;;;34.65;20.15;;;4.90;99.90;;;;;;4988445;28;20046;-60
2022/01/07 09:19:26;;;;;;;31.25;19.95;;;4.90;99.90;;;;;;4983696;28;20035;-57
2022/01/07 09:21:52;;;;;;;34.35;19.48;;;4.90;99.90;;;;;;4969528;28;20065;-57
2022/01/07 09:24:17;;;;;;;33.03;19.30;;;4.90;99.90;;;;;;4985588;28;20058;-56
2022/01/07 09:26:43;;;;;;;30.77;18.80;;;4.90;99.90;;;;;;4986565;28;20057;-58
2022/01/07 09:29:09;;;;;;;34.22;19.60;;;4.90;99.90;;;;;;4967491;28;20051;-59
2022/01/07 09:31:35;;;;;;;28.88;18.52;;;4.90;99.90;;;;;;4986194;28;20061;-58
2022/01/07 09:34:01;;;;;;;30.75;17.38;;;4.90;99.90;;;;;;4977936;28;20589;-59
2022/01/07 09:36:27;;;;;;;25.40;13.90;;;4.90;99.90;;;;;;4966924;28;20105;-59
2022/01/07 09:38:52;;;;;;;27.95;13.60;;;4.90;99.90;;;;;;4988449;28;20045;-57
2022/01/07 09:41:18;;;;;;;24.45;11.70;;;4.90;99.90;;;;;;4978126;28;20050;-60
2022/01/07 09:43:45;;;;;;;23.95;10.68;;;4.90;99.90;;;;;;4967346;28;20052;-59
2022/01/07 09:46:15;;;;;;;19.83;9.90;;;4.90;99.90;;;;;;4979601;28;20362;-58
2022/01/07 09:48:42;;;;;;;17.27;9.05;;;5.00;99.90;;;;;;4971750;28;20085;-60
2022/01/07 09:51:09;;;;;;;21.65;10.52;;;5.00;99.90;;;;;;5002020;28;20386;-59
2022/01/07 09:53:34;;;;;;;21.70;11.23;;;5.10;99.90;;;;;;4997778;28;20053;-58
2022/01/07 09:56:03;;;;;;;17.92;11.52;;;5.20;99.90;;;;;;4989369;28;20642;-59
2022/01/07 09:58:29;;;;;;;21.23;11.13;;;5.20;99.90;;;;;;4977483;28;20049;-58
2022/01/07 10:01:01;;;;;;;19.95;11.43;;;5.20;99.90;;;;;;4982538;28;20520;-59
2022/01/07 10:03:39;;;;;;;20.02;12.40;;;5.30;99.90;;;;;;4974064;28;20054;-59
2022/01/07 10:06:26;;;;;;;17.33;11.25;;;5.40;99.90;;;;;;4986528;28;20097;-57
2022/01/07 10:09:11;;;;;;;15.77;10.70;;;5.50;99.90;;;;;;4986760;28;20059;-60
2022/01/07 10:11:38;;;;;;;19.35;9.35;;;5.60;99.90;;;;;;4980652;28;20137;-57
2022/01/07 10:14:21;;;;;;;15.38;7.72;;;5.60;99.90;;;;;;4980153;28;20034;-60
2022/01/07 10:16:58;;;;;;;11.70;6.68;;;5.50;99.90;;;;;;5001509;23;20243;-58
2022/01/07 10:19:43;;;;;;;16.48;6.18;;;5.40;99.90;;;;;;4975985;28;20133;-57
2022/01/07 10:22:14;;;;;;;10.88;5.05;;;5.40;99.90;;;;;;4970338;28;20201;-58
2022/01/07 10:24:57;;;;;;;13.88;6.13;;;5.40;99.90;;;;;;4971379;28;20042;-56
2022/01/07 10:27:33;;;;;;;10.52;5.68;;;5.50;99.90;;;;;;4990348;28;20038;-57
2022/01/07 10:29:59;;;;;;;15.98;6.65;;;5.70;99.90;;;;;;4971506;28;20085;-53
2022/01/07 10:32:31;;;;;;;15.15;6.15;;;5.80;99.90;;;;;;4991685;28;20046;-57
2022/01/07 10:35:19;;;;;;;14.50;5.53;;;5.80;99.90;;;;;;4983248;28;20413;-58
2022/01/07 10:37:54;;;;;;;14.75;5.63;;;5.80;99.90;;;;;;4989548;28;20034;-55
2022/01/07 10:40:38;;;;;;;11.85;5.50;;;5.90;99.90;;;;;;4982429;28;20196;-57
2022/01/07 10:43:11;;;;;;;10.50;5.82;;;5.90;99.90;;;;;;4989311;28;20133;-58
2022/01/07 10:45:52;;;;;;;18.17;6.97;;;6.00;99.90;;;;;;4982459;28;20117;-53
2022/01/07 10:48:21;;;;;;;12.48;6.35;;;6.10;99.90;;;;;;4964514;28;20050;-57
2022/01/07 10:50:49;;;;;;;14.45;6.93;;;6.20;99.90;;;;;;4967245;28;20523;-55
2022/01/07 10:53:22;;;;;;;11.52;6.00;;;6.30;99.90;;;;;;4984005;28;20030;-55
2022/01/07 10:56:06;;;;;;;13.20;5.50;;;6.30;99.90;;;;;;4967695;28;20097;-58
2022/01/07 10:58:51;;;;;;;;;;;6.40;99.90;;;;;;4964588;28;21241;-56
2022/01/07 11:01:20;;;;;;;13.15;6.20;;;6.50;99.90;;;;;;4986843;28;19921;-57
2022/01/07 11:03:51;;;;;;;17.10;6.05;;;6.60;99.90;;;;;;4970415;28;20053;-56
2022/01/07 11:06:17;;;;;;;12.90;6.03;;;6.60;99.90;;;;;;4966758;28;20405;-56
2022/01/07 11:08:43;;;;;;;13.55;6.57;;;6.60;99.90;;;;;;4965559;28;20058;-58
2022/01/07 11:11:10;;;;;;;16.38;6.68;;;6.70;99.90;;;;;;4967749;28;20157;-58
2022/01/07 11:13:36;;;;;;;16.80;6.85;;;6.70;99.90;;;;;;4985034;28;20544;-57
2022/01/07 11:16:03;;;;;;;19.17;9.63;;;6.70;99.90;;;;;;4971824;28;20447;-59
2022/01/07 11:18:29;;;;;;;16.88;8.75;;;6.60;99.90;;;;;;4957272;28;20092;-57
2022/01/07 11:20:58;;;;;;;22.90;10.35;;;6.60;99.90;;;;;;4987934;28;20057;-58
2022/01/07 11:23:31;;;;;;;21.40;9.45;;;6.60;99.90;;;;;;4976963;28;20173;-57
2022/01/07 11:26:02;;;;;;;23.15;10.88;;;6.70;99.90;;;;;;4992678;28;20036;-58
2022/01/07 11:28:29;;;;;;;21.13;11.40;;;6.80;99.90;;;;;;4973436;28;20045;-57
2022/01/07 11:31:05;;;;;;;23.23;10.68;;;6.90;99.90;;;;;;4966637;28;20052;-57
2022/01/07 11:33:31;;;;;;;20.55;11.13;;;6.80;99.90;;;;;;4971546;28;20354;-56
2022/01/07 11:35:57;;;;;;;18.25;10.05;;;6.80;99.90;;;;;;4982721;28;20038;-58
2022/01/07 11:38:44;;;;;;;23.73;9.85;;;6.90;99.90;;;;;;4970896;28;20096;-58
2022/01/07 11:41:33;;;;;;;18.48;8.80;;;6.80;99.90;;;;;;4961040;28;20081;-55
2022/01/07 11:44:13;;;;;;;16.52;7.25;;;6.70;99.90;;;;;;4983820;28;20037;-54
2022/01/07 11:46:38;;;;;;;12.95;5.85;;;6.60;99.90;;;;;;4967718;28;20045;-58
2022/01/07 11:49:05;;;;;;;12.07;5.15;;;6.60;99.90;;;;;;4966429;28;20389;-58
2022/01/07 11:51:40;;;;;;;16.08;5.50;;;6.40;99.90;;;;;;4966604;28;20037;-58
2022/01/07 11:54:09;;;;;;;14.45;6.63;;;6.40;99.90;;;;;;4972324;28;20149;-56
2022/01/07 11:56:36;;;;;;;20.88;7.78;;;6.40;99.90;;;;;;4968772;28;20049;-54
2022/01/07 11:59:17;;;;;;;14.95;7.15;;;6.40;99.90;;;;;;4966469;28;20283;-57
2022/01/07 12:01:42;;;;;;;20.15;6.78;;;6.40;99.90;;;;;;4968626;28;20042;-57
2022/01/07 12:04:19;;;;;;;17.98;6.80;;;6.50;99.90;;;;;;4968016;28;20053;-55
2022/01/07 12:06:46;;;;;;;10.15;5.72;;;6.50;99.90;;;;;;4985508;28;20129;-56
2022/01/07 12:09:25;;;;;;;14.23;5.85;;;6.40;99.90;;;;;;4969409;28;20341;-56
2022/01/07 12:12:05;;;;;;;14.80;5.60;;;6.40;99.90;;;;;;4953911;28;20435;-55
2022/01/07 12:14:52;;;;;;;16.20;6.05;;;6.50;99.90;;;;;;4988520;28;20045;-56
2022/01/07 12:17:20;;;;;;;14.82;5.47;;;6.50;99.90;;;;;;4975584;28;20587;-57
2022/01/07 12:19:49;;;;;;;16.38;4.85;;;6.60;99.90;;;;;;4985669;28;20168;-56
2022/01/07 12:22:20;;;;;;;9.77;3.55;;;6.70;99.90;;;;;;4971184;28;20331;-55
2022/01/07 12:24:47;;;;;;;13.80;4.03;;;6.80;99.90;;;;;;4973220;28;20042;-58
2022/01/07 12:27:22;;;;;;;11.18;4.00;;;6.80;99.90;;;;;;4940894;28;20050;-57
2022/01/07 12:29:53;;;;;;;17.02;3.70;;;6.90;99.90;;;;;;4964288;28;20061;-56
2022/01/07 12:32:20;;;;;;;11.45;2.50;;;6.90;99.90;;;;;;4978461;28;20034;-57
2022/01/07 12:34:50;;;;;;;8.75;2.40;;;7.00;99.90;;;;;;4995954;28;20366;-58
2022/01/07 12:37:22;;;;;;;11.15;2.40;;;7.00;99.90;;;;;;4979824;28;20050;-58
2022/01/07 12:39:51;;;;;;;10.90;2.45;;;6.90;99.90;;;;;;4979490;28;20445;-55
2022/01/07 12:42:18;;;;;;;11.68;2.30;;;6.90;99.90;;;;;;5003182;28;20491;-56
2022/01/07 12:44:52;;;;;;;11.13;2.05;;;6.80;99.90;;;;;;4979536;28;20046;-59
2022/01/07 12:47:23;;;;;;;10.48;2.80;;;6.70;99.90;;;;;;4972776;28;20042;-56
2022/01/07 12:49:56;;;;;;;7.90;2.03;;;6.70;99.90;;;;;;4976853;28;20084;-58
2022/01/07 12:52:43;;;;;;;13.57;2.33;;;6.60;99.90;;;;;;4992808;28;20049;-58
2022/01/07 12:55:14;;;;;;;13.75;2.13;;;6.60;99.90;;;;;;4974151;28;20048;-57